SWRD11 YAMB-YAMB
Flight info
| Callsign | SWRD11 |
|---|---|
| Flight time | 1h 52m |
| Altitude | 31000 |
| Route | BINUP BOBED LESKO MOSSI |
| Aircraft | F18S/M-SDGHITUY/LB1 |
Departure
| Time | 2026-04-16 03:23 |
|---|---|
| Airport | RAAF Base Amberley (YAMB) |
Arrival
| Time | 2026-04-16 05:16 |
|---|---|
| Airport | RAAF Base Amberley (YAMB) |
| Time | Latitude | Longitude | Altitude | Speed | Heading |
|---|---|---|---|---|---|
| 2026-04-16 03:11 | -27.63292 | 152.70544 | 97 ft | 0 kts | 9° |
| 2026-04-16 03:11 | -27.63286 | 152.70545 | 97 ft | 5 kts | 9° |
| 2026-04-16 03:11 | -27.63255 | 152.70565 | 98 ft | 4 kts | 66° |
| 2026-04-16 03:11 | -27.63230 | 152.70637 | 97 ft | 0 kts | 68° |
| 2026-04-16 03:12 | -27.63224 | 152.70655 | 97 ft | 17 kts | 68° |
| 2026-04-16 03:12 | -27.63211 | 152.70679 | 98 ft | 0 kts | 39° |
| 2026-04-16 03:13 | -27.63198 | 152.70684 | 96 ft | 14 kts | 13° |
| 2026-04-16 03:13 | -27.63186 | 152.70757 | 95 ft | 8 kts | 154° |
| 2026-04-16 03:14 | -27.63231 | 152.70777 | 95 ft | 6 kts | 159° |
| 2026-04-16 03:14 | -27.63260 | 152.70789 | 96 ft | 3 kts | 159° |
| 2026-04-16 03:14 | -27.63275 | 152.70796 | 96 ft | 0 kts | 160° |
| 2026-04-16 03:14 | -27.63334 | 152.70822 | 95 ft | 26 kts | 158° |
| 2026-04-16 03:15 | -27.63529 | 152.70910 | 96 ft | 29 kts | 159° |
| 2026-04-16 03:15 | -27.63710 | 152.70987 | 96 ft | 27 kts | 157° |
| 2026-04-16 03:15 | -27.63869 | 152.71055 | 100 ft | 22 kts | 158° |
| 2026-04-16 03:15 | -27.64004 | 152.71116 | 101 ft | 20 kts | 159° |
| 2026-04-16 03:16 | -27.64125 | 152.71168 | 101 ft | 18 kts | 159° |
| 2026-04-16 03:16 | -27.64233 | 152.71214 | 100 ft | 16 kts | 158° |
| 2026-04-16 03:16 | -27.64337 | 152.71260 | 97 ft | 16 kts | 159° |
| 2026-04-16 03:16 | -27.64439 | 152.71305 | 98 ft | 15 kts | 160° |
| 2026-04-16 03:17 | -27.64530 | 152.71345 | 97 ft | 13 kts | 158° |
| 2026-04-16 03:17 | -27.64610 | 152.71380 | 96 ft | 12 kts | 159° |
| 2026-04-16 03:17 | -27.64682 | 152.71411 | 95 ft | 10 kts | 159° |
| 2026-04-16 03:17 | -27.64738 | 152.71440 | 98 ft | 7 kts | 141° |
| 2026-04-16 03:18 | -27.64761 | 152.71478 | 97 ft | 7 kts | 117° |
| 2026-04-16 03:18 | -27.64766 | 152.71517 | 98 ft | 3 kts | 81° |
| 2026-04-16 03:18 | -27.64754 | 152.71554 | 98 ft | 20 kts | 70° |
| 2026-04-16 03:18 | -27.64699 | 152.71562 | 97 ft | 0 kts | 49° |
| 2026-04-16 03:19 | -27.64690 | 152.71568 | 97 ft | 2 kts | 25° |
| 2026-04-16 03:19 | -27.64688 | 152.71569 | 97 ft | 0 kts | 24° |
| 2026-04-16 03:20 | -27.64642 | 152.71588 | 98 ft | 20 kts | 6° |
| 2026-04-16 03:20 | -27.64564 | 152.71564 | 97 ft | 0 kts | 338° |
| 2026-04-16 03:22 | -27.64542 | 152.71555 | 97 ft | 34 kts | 339° |
| 2026-04-16 03:22 | -27.63741 | 152.71198 | 197 ft | 191 kts | 339° |
| 2026-04-16 03:23 | -27.62180 | 152.70496 | 527 ft | 287 kts | 340° |
| 2026-04-16 03:23 | -27.60290 | 152.69630 | 1082 ft | 267 kts | 338° |
| 2026-04-16 03:23 | -27.58671 | 152.68861 | 1410 ft | 283 kts | 337° |
| 2026-04-16 03:23 | -27.56608 | 152.68295 | 1465 ft | 323 kts | 5° |
| 2026-04-16 03:24 | -27.54352 | 152.68920 | 2723 ft | 366 kts | 13° |
| 2026-04-16 03:24 | -27.51922 | 152.69585 | 4688 ft | 350 kts | 13° |
| 2026-04-16 03:24 | -27.49680 | 152.70200 | 7022 ft | 321 kts | 12° |
| 2026-04-16 03:24 | -27.47383 | 152.70801 | 8508 ft | 336 kts | 11° |
| 2026-04-16 03:25 | -27.45190 | 152.71311 | 9828 ft | 312 kts | 9° |
| 2026-04-16 03:25 | -27.43078 | 152.71807 | 10815 ft | 301 kts | 10° |
| 2026-04-16 03:25 | -27.40976 | 152.72315 | 11284 ft | 313 kts | 9° |
| 2026-04-16 03:25 | -27.39021 | 152.72782 | 12795 ft | 304 kts | 8° |
| 2026-04-16 03:26 | -27.36723 | 152.73302 | 14664 ft | 375 kts | 8° |
| 2026-04-16 03:26 | -27.34021 | 152.73957 | 17317 ft | 420 kts | 17° |
| 2026-04-16 03:26 | -27.32030 | 152.76337 | 19163 ft | 438 kts | 70° |
| 2026-04-16 03:26 | -27.31538 | 152.79937 | 20168 ft | 495 kts | 83° |
| 2026-04-16 03:27 | -27.31101 | 152.83603 | 21047 ft | 454 kts | 82° |
| 2026-04-16 03:27 | -27.30675 | 152.87018 | 21298 ft | 439 kts | 82° |
| 2026-04-16 03:27 | -27.30193 | 152.90741 | 21660 ft | 518 kts | 83° |
| 2026-04-16 03:27 | -27.29704 | 152.94845 | 22068 ft | 539 kts | 83° |
| 2026-04-16 03:28 | -27.29255 | 152.98894 | 22211 ft | 532 kts | 83° |
| 2026-04-16 03:28 | -27.28768 | 153.03308 | 22441 ft | 619 kts | 83° |
| 2026-04-16 03:28 | -27.28217 | 153.08340 | 23795 ft | 678 kts | 83° |
| 2026-04-16 03:28 | -27.27609 | 153.13614 | 24596 ft | 620 kts | 82° |
| 2026-04-16 03:29 | -27.27089 | 153.17867 | 24505 ft | 506 kts | 82° |
| 2026-04-16 03:29 | -27.26458 | 153.21752 | 24328 ft | 508 kts | 73° |
| 2026-04-16 03:29 | -27.24791 | 153.25179 | 24461 ft | 497 kts | 44° |
| 2026-04-16 03:29 | -27.21952 | 153.27192 | 24625 ft | 483 kts | 22° |
| 2026-04-16 03:30 | -27.19007 | 153.29058 | 24637 ft | 488 kts | 24° |
| 2026-04-16 03:30 | -27.16196 | 153.31219 | 24529 ft | 504 kts | 41° |
| 2026-04-16 03:30 | -27.13753 | 153.34017 | 24364 ft | 511 kts | 42° |
| 2026-04-16 03:30 | -27.11287 | 153.36883 | 24433 ft | 512 kts | 43° |
| 2026-04-16 03:31 | -27.08813 | 153.39774 | 24437 ft | 514 kts | 42° |
| 2026-04-16 03:31 | -27.06321 | 153.42656 | 24437 ft | 515 kts | 42° |
| 2026-04-16 03:31 | -27.03809 | 153.45531 | 24435 ft | 517 kts | 42° |
| 2026-04-16 03:31 | -27.01276 | 153.48400 | 24436 ft | 518 kts | 41° |
| 2026-04-16 03:32 | -26.98733 | 153.51253 | 24435 ft | 518 kts | 41° |
| 2026-04-16 03:32 | -26.96201 | 153.54067 | 24434 ft | 507 kts | 41° |
| 2026-04-16 03:34 | -26.74897 | 153.64625 | 24440 ft | 490 kts | 2° |
| 2026-04-16 03:34 | -26.71525 | 153.65185 | 24441 ft | 490 kts | 2° |
| 2026-04-16 03:34 | -26.68151 | 153.65738 | 24438 ft | 490 kts | 2° |
| 2026-04-16 03:34 | -26.64820 | 153.66281 | 24438 ft | 490 kts | 2° |
| 2026-04-16 03:35 | -26.61442 | 153.66830 | 24440 ft | 491 kts | 2° |
| 2026-04-16 03:35 | -26.58060 | 153.67377 | 24439 ft | 491 kts | 2° |
| 2026-04-16 03:35 | -26.54681 | 153.67922 | 24441 ft | 491 kts | 2° |
| 2026-04-16 03:35 | -26.51296 | 153.68466 | 24439 ft | 491 kts | 2° |
| 2026-04-16 03:36 | -26.47911 | 153.69008 | 24438 ft | 492 kts | 2° |
| 2026-04-16 03:36 | -26.44525 | 153.69550 | 24439 ft | 492 kts | 2° |
| 2026-04-16 03:36 | -26.41182 | 153.70082 | 24439 ft | 491 kts | 2° |
| 2026-04-16 03:36 | -26.37798 | 153.70620 | 24438 ft | 491 kts | 2° |
| 2026-04-16 03:37 | -26.34413 | 153.71158 | 24438 ft | 492 kts | 2° |
| 2026-04-16 03:37 | -26.31053 | 153.71993 | 24437 ft | 497 kts | 9° |
| 2026-04-16 03:37 | -26.27727 | 153.73060 | 24437 ft | 499 kts | 11° |
| 2026-04-16 03:37 | -26.24409 | 153.74192 | 24437 ft | 499 kts | 12° |
| 2026-04-16 03:38 | -26.21093 | 153.75347 | 24437 ft | 499 kts | 12° |
| 2026-04-16 03:38 | -26.17789 | 153.76506 | 24436 ft | 499 kts | 12° |
| 2026-04-16 03:38 | -26.14470 | 153.77671 | 24439 ft | 499 kts | 12° |
| 2026-04-16 03:38 | -26.11163 | 153.78833 | 24438 ft | 499 kts | 12° |
| 2026-04-16 03:39 | -26.07895 | 153.79980 | 24438 ft | 499 kts | 12° |
| 2026-04-16 03:39 | -26.04583 | 153.81143 | 24439 ft | 499 kts | 12° |
| 2026-04-16 03:39 | -26.01270 | 153.82305 | 24435 ft | 499 kts | 12° |
| 2026-04-16 03:39 | -25.97962 | 153.83464 | 24435 ft | 499 kts | 12° |
| 2026-04-16 03:40 | -25.94646 | 153.84625 | 24435 ft | 499 kts | 12° |
| 2026-04-16 03:40 | -25.91343 | 153.85781 | 24434 ft | 499 kts | 12° |
| 2026-04-16 03:40 | -25.88067 | 153.87116 | 24426 ft | 503 kts | 18° |
| 2026-04-16 03:40 | -25.84865 | 153.88709 | 24431 ft | 505 kts | 20° |
| 2026-04-16 03:41 | -25.81687 | 153.90379 | 24431 ft | 506 kts | 21° |
| 2026-04-16 03:41 | -25.78511 | 153.92077 | 24432 ft | 506 kts | 21° |
| 2026-04-16 03:41 | -25.75383 | 153.93758 | 24438 ft | 506 kts | 21° |
| 2026-04-16 03:41 | -25.72215 | 153.95463 | 24435 ft | 507 kts | 21° |
| 2026-04-16 03:42 | -25.69044 | 153.97171 | 24430 ft | 507 kts | 21° |
| 2026-04-16 03:42 | -25.65872 | 153.98880 | 24435 ft | 506 kts | 21° |
| 2026-04-16 03:42 | -25.62630 | 154.00590 | 23352 ft | 528 kts | 21° |
| 2026-04-16 03:42 | -25.59243 | 154.02180 | 22982 ft | 527 kts | 16° |
| 2026-04-16 03:43 | -25.55764 | 154.03361 | 22733 ft | 523 kts | 11° |
| 2026-04-16 03:43 | -25.52480 | 154.04326 | 22616 ft | 474 kts | 9° |
| 2026-04-16 03:43 | -25.49275 | 154.05187 | 22602 ft | 477 kts | 8° |
| 2026-04-16 03:43 | -25.46033 | 154.06017 | 22605 ft | 477 kts | 8° |
| 2026-04-16 03:44 | -25.42799 | 154.06841 | 22605 ft | 479 kts | 8° |
| 2026-04-16 03:44 | -25.39384 | 154.07750 | 22610 ft | 481 kts | 9° |
| 2026-04-16 03:44 | -25.36140 | 154.08653 | 22600 ft | 481 kts | 9° |
| 2026-04-16 03:44 | -25.32895 | 154.09591 | 22609 ft | 482 kts | 10° |
| 2026-04-16 03:45 | -25.29656 | 154.10561 | 22609 ft | 484 kts | 11° |
| 2026-04-16 03:45 | -25.26456 | 154.11554 | 22602 ft | 484 kts | 11° |
| 2026-04-16 03:45 | -25.23230 | 154.12588 | 22606 ft | 484 kts | 12° |
| 2026-04-16 03:45 | -25.20000 | 154.13658 | 22600 ft | 485 kts | 12° |
| 2026-04-16 03:46 | -25.16760 | 154.14645 | 22522 ft | 481 kts | 6° |
| 2026-04-16 03:46 | -25.13479 | 154.14961 | 22344 ft | 449 kts | 358° |
| 2026-04-16 03:46 | -25.10454 | 154.15567 | 22677 ft | 451 kts | 11° |
| 2026-04-16 03:46 | -25.07354 | 154.16475 | 22794 ft | 471 kts | 9° |
| 2026-04-16 03:47 | -25.04069 | 154.17311 | 22474 ft | 498 kts | 8° |
| 2026-04-16 03:47 | -25.00699 | 154.18145 | 22483 ft | 506 kts | 8° |
| 2026-04-16 03:47 | -24.97555 | 154.18987 | 22304 ft | 435 kts | 9° |
| 2026-04-16 03:47 | -24.94825 | 154.19764 | 22136 ft | 372 kts | 9° |
| 2026-04-16 03:48 | -24.92509 | 154.20462 | 22110 ft | 326 kts | 9° |
| 2026-04-16 03:48 | -24.90282 | 154.21142 | 22104 ft | 335 kts | 9° |
| 2026-04-16 03:48 | -24.88031 | 154.21827 | 22101 ft | 331 kts | 9° |
| 2026-04-16 03:48 | -24.85803 | 154.22510 | 22108 ft | 331 kts | 9° |
| 2026-04-16 03:49 | -24.83565 | 154.23192 | 22109 ft | 339 kts | 9° |
| 2026-04-16 03:49 | -24.81339 | 154.23873 | 22109 ft | 329 kts | 9° |
| 2026-04-16 03:49 | -24.79181 | 154.24533 | 22094 ft | 332 kts | 9° |
| 2026-04-16 03:49 | -24.76928 | 154.25219 | 22099 ft | 331 kts | 9° |
| 2026-04-16 03:50 | -24.74706 | 154.25897 | 22106 ft | 324 kts | 9° |
| 2026-04-16 03:50 | -24.72482 | 154.26576 | 22104 ft | 335 kts | 9° |
| 2026-04-16 03:50 | -24.70254 | 154.27129 | 22113 ft | 335 kts | 0° |
| 2026-04-16 03:50 | -24.68026 | 154.27003 | 22122 ft | 315 kts | 341° |
| 2026-04-16 03:51 | -24.66024 | 154.26183 | 22126 ft | 296 kts | 325° |
| 2026-04-16 03:51 | -24.64381 | 154.24798 | 22108 ft | 294 kts | 309° |
| 2026-04-16 03:51 | -24.63198 | 154.23012 | 22105 ft | 288 kts | 294° |
| 2026-04-16 03:51 | -24.62523 | 154.21005 | 22119 ft | 280 kts | 281° |
| 2026-04-16 03:52 | -24.62369 | 154.18859 | 22119 ft | 292 kts | 266° |
| 2026-04-16 03:52 | -24.62747 | 154.16752 | 22121 ft | 286 kts | 253° |
| 2026-04-16 03:52 | -24.63605 | 154.14856 | 22122 ft | 280 kts | 239° |
| 2026-04-16 03:52 | -24.64939 | 154.13244 | 22118 ft | 286 kts | 224° |
| 2026-04-16 03:53 | -24.66513 | 154.12152 | 22085 ft | 232 kts | 214° |
| 2026-04-16 03:53 | -24.68365 | 154.11512 | 22039 ft | 303 kts | 195° |
| 2026-04-16 03:53 | -24.70662 | 154.11498 | 22068 ft | 332 kts | 178° |
| 2026-04-16 03:53 | -24.72822 | 154.12211 | 22090 ft | 325 kts | 166° |
| 2026-04-16 03:54 | -24.74922 | 154.13052 | 22101 ft | 319 kts | 167° |
| 2026-04-16 03:54 | -24.76996 | 154.13879 | 22095 ft | 300 kts | 167° |
| 2026-04-16 03:54 | -24.79094 | 154.14713 | 22100 ft | 322 kts | 167° |
| 2026-04-16 03:54 | -24.81164 | 154.15541 | 22100 ft | 321 kts | 167° |
| 2026-04-16 03:55 | -24.82361 | 154.16019 | 22103 ft | 321 kts | 167° |
| 2026-04-16 03:55 | -24.83092 | 154.16317 | 22107 ft | 349 kts | 165° |
| 2026-04-16 03:55 | -24.85259 | 154.17182 | 22127 ft | 317 kts | 167° |
| 2026-04-16 03:55 | -24.87291 | 154.18001 | 22100 ft | 315 kts | 166° |
| 2026-04-16 03:56 | -24.89375 | 154.18837 | 22110 ft | 307 kts | 166° |
| 2026-04-16 03:56 | -24.91434 | 154.19667 | 22105 ft | 317 kts | 167° |
| 2026-04-16 03:56 | -24.93535 | 154.20505 | 22104 ft | 316 kts | 167° |
| 2026-04-16 03:56 | -24.95579 | 154.21381 | 22140 ft | 312 kts | 164° |
| 2026-04-16 03:57 | -24.97685 | 154.22174 | 22107 ft | 326 kts | 165° |
| 2026-04-16 03:57 | -24.99770 | 154.23009 | 22107 ft | 323 kts | 167° |
| 2026-04-16 03:57 | -25.01841 | 154.23843 | 22113 ft | 318 kts | 167° |
| 2026-04-16 03:57 | -25.03794 | 154.25091 | 22121 ft | 328 kts | 147° |
| 2026-04-16 03:58 | -25.05279 | 154.27042 | 22128 ft | 346 kts | 125° |
| 2026-04-16 03:58 | -25.06064 | 154.29546 | 22121 ft | 361 kts | 103° |
| 2026-04-16 03:58 | -25.05981 | 154.32222 | 22126 ft | 353 kts | 79° |
| 2026-04-16 03:58 | -25.05038 | 154.34642 | 22030 ft | 361 kts | 57° |
| 2026-04-16 03:59 | -25.03292 | 154.36618 | 22061 ft | 344 kts | 30° |
| 2026-04-16 03:59 | -25.01471 | 154.37546 | 22041 ft | 286 kts | 8° |
| 2026-04-16 03:59 | -24.99547 | 154.37826 | 22033 ft | 272 kts | 352° |
| 2026-04-16 03:59 | -24.97601 | 154.37401 | 22045 ft | 295 kts | 331° |
| 2026-04-16 04:00 | -24.96110 | 154.36586 | 21845 ft | 246 kts | 321° |
| 2026-04-16 04:00 | -24.94779 | 154.35453 | 21319 ft | 229 kts | 311° |
| 2026-04-16 04:00 | -24.93678 | 154.34217 | 20897 ft | 220 kts | 305° |
| 2026-04-16 04:00 | -24.92452 | 154.32964 | 20780 ft | 260 kts | 322° |
| 2026-04-16 04:01 | -24.90571 | 154.32600 | 20948 ft | 259 kts | 354° |
| 2026-04-16 04:01 | -24.88877 | 154.32557 | 21452 ft | 290 kts | 344° |
| 2026-04-16 04:01 | -24.86649 | 154.32354 | 21777 ft | 310 kts | 346° |
| 2026-04-16 04:01 | -24.84627 | 154.31974 | 22215 ft | 322 kts | 337° |
| 2026-04-16 04:02 | -24.82414 | 154.31244 | 22171 ft | 341 kts | 337° |
| 2026-04-16 04:02 | -24.80070 | 154.30365 | 22195 ft | 370 kts | 334° |
| 2026-04-16 04:02 | -24.77662 | 154.29380 | 22193 ft | 373 kts | 334° |
| 2026-04-16 04:02 | -24.75142 | 154.28355 | 22219 ft | 378 kts | 334° |
| 2026-04-16 04:03 | -24.72513 | 154.27267 | 22132 ft | 411 kts | 334° |
| 2026-04-16 04:03 | -24.69745 | 154.26083 | 22136 ft | 450 kts | 330° |
| 2026-04-16 04:03 | -24.67173 | 154.24099 | 22168 ft | 447 kts | 330° |
| 2026-04-16 04:03 | -24.65008 | 154.21958 | 22445 ft | 391 kts | 292° |
| 2026-04-16 04:04 | -24.63530 | 154.19636 | 21869 ft | 345 kts | 298° |
| 2026-04-16 04:04 | -24.62748 | 154.17962 | 22029 ft | 406 kts | 289° |
| 2026-04-16 04:04 | -24.61831 | 154.14628 | 22202 ft | 476 kts | 280° |
| 2026-04-16 04:04 | -24.61474 | 154.09304 | 23059 ft | 314 kts | 270° |
| 2026-04-16 04:05 | -24.61897 | 154.06450 | 22233 ft | 315 kts | 251° |
| 2026-04-16 04:05 | -24.63705 | 154.02935 | 21223 ft | 339 kts | 231° |
| 2026-04-16 04:05 | -24.65539 | 154.00931 | 21116 ft | 432 kts | 222° |
| 2026-04-16 04:05 | -24.68100 | 153.99248 | 21826 ft | 367 kts | 207° |
| 2026-04-16 04:06 | -24.69732 | 153.98700 | 21852 ft | 385 kts | 192° |
| 2026-04-16 04:06 | -24.72531 | 153.98732 | 22174 ft | 397 kts | 175° |
| 2026-04-16 04:06 | -24.75585 | 154.00270 | 22134 ft | 359 kts | 147° |
| 2026-04-16 04:06 | -24.77127 | 154.02275 | 22121 ft | 348 kts | 125° |
| 2026-04-16 04:07 | -24.78078 | 154.04719 | 22119 ft | 334 kts | 116° |
| 2026-04-16 04:07 | -24.80157 | 154.09395 | 22181 ft | 352 kts | 121° |
| 2026-04-16 04:07 | -24.81089 | 154.11724 | 22183 ft | 303 kts | 128° |
| 2026-04-16 04:08 | -24.81851 | 154.13245 | 22118 ft | 364 kts | 122° |
| 2026-04-16 04:08 | -24.83368 | 154.15301 | 22113 ft | 357 kts | 144° |
| 2026-04-16 04:08 | -24.86052 | 154.17322 | 22120 ft | 375 kts | 159° |
| 2026-04-16 04:08 | -24.87614 | 154.18160 | 22058 ft | 385 kts | 160° |
| 2026-04-16 04:09 | -24.90185 | 154.19285 | 22160 ft | 379 kts | 165° |
| 2026-04-16 04:09 | -24.93109 | 154.20438 | 22119 ft | 313 kts | 165° |
| 2026-04-16 04:09 | -24.94717 | 154.21125 | 22191 ft | 353 kts | 165° |
| 2026-04-16 04:09 | -24.97156 | 154.22051 | 22191 ft | 361 kts | 167° |
| 2026-04-16 04:10 | -24.99543 | 154.23004 | 22188 ft | 376 kts | 166° |
| 2026-04-16 04:10 | -25.01890 | 154.23941 | 22113 ft | 351 kts | 166° |
| 2026-04-16 04:10 | -25.04038 | 154.25228 | 22158 ft | 371 kts | 142° |
| 2026-04-16 04:10 | -25.05731 | 154.27522 | 22078 ft | 388 kts | 125° |
| 2026-04-16 04:11 | -25.06678 | 154.30300 | 22069 ft | 387 kts | 104° |
| 2026-04-16 04:11 | -25.06767 | 154.33280 | 22070 ft | 394 kts | 84° |
| 2026-04-16 04:11 | -25.05976 | 154.36164 | 22074 ft | 392 kts | 63° |
| 2026-04-16 04:11 | -25.04416 | 154.38591 | 22046 ft | 374 kts | 42° |
| 2026-04-16 04:12 | -25.02271 | 154.40286 | 22089 ft | 380 kts | 22° |
| 2026-04-16 04:12 | -24.99804 | 154.41067 | 22136 ft | 354 kts | 357° |
| 2026-04-16 04:12 | -24.97301 | 154.40901 | 22080 ft | 359 kts | 340° |
| 2026-04-16 04:12 | -24.95119 | 154.39797 | 22080 ft | 341 kts | 320° |
| 2026-04-16 04:13 | -24.93462 | 154.38048 | 22062 ft | 312 kts | 308° |
| 2026-04-16 04:13 | -24.91879 | 154.36291 | 22097 ft | 325 kts | 313° |
| 2026-04-16 04:13 | -24.89257 | 154.34272 | 22102 ft | 366 kts | 326° |
| 2026-04-16 04:13 | -24.87785 | 154.33460 | 22110 ft | 349 kts | 329° |
| 2026-04-16 04:14 | -24.85538 | 154.32426 | 22110 ft | 351 kts | 333° |
| 2026-04-16 04:14 | -24.83278 | 154.31498 | 22101 ft | 351 kts | 334° |
| 2026-04-16 04:14 | -24.80985 | 154.30596 | 22103 ft | 351 kts | 334° |
| 2026-04-16 04:14 | -24.78635 | 154.29856 | 22094 ft | 366 kts | 327° |
| 2026-04-16 04:15 | -24.76682 | 154.28902 | 21947 ft | 336 kts | 332° |
| 2026-04-16 04:15 | -24.74205 | 154.27923 | 22030 ft | 354 kts | 335° |
| 2026-04-16 04:15 | -24.71877 | 154.26993 | 22070 ft | 358 kts | 334° |
| 2026-04-16 04:15 | -24.69707 | 154.25820 | 22086 ft | 338 kts | 321° |
| 2026-04-16 04:16 | -24.67974 | 154.24089 | 22099 ft | 320 kts | 305° |
| 2026-04-16 04:16 | -24.66640 | 154.21984 | 22072 ft | 353 kts | 292° |
| 2026-04-16 04:16 | -24.66087 | 154.19722 | 21838 ft | 302 kts | 286° |
| 2026-04-16 04:16 | -24.66141 | 154.17214 | 22109 ft | 358 kts | 265° |
| 2026-04-16 04:17 | -24.66741 | 154.14717 | 22124 ft | 327 kts | 249° |
| 2026-04-16 04:17 | -24.67812 | 154.12516 | 22203 ft | 353 kts | 237° |
| 2026-04-16 04:17 | -24.69653 | 154.10954 | 22156 ft | 337 kts | 219° |
| 2026-04-16 04:17 | -24.71687 | 154.09838 | 22128 ft | 328 kts | 202° |
| 2026-04-16 04:18 | -24.74127 | 154.09405 | 22237 ft | 371 kts | 187° |
| 2026-04-16 04:18 | -24.76591 | 154.09777 | 22165 ft | 367 kts | 168° |
| 2026-04-16 04:18 | -24.78917 | 154.10691 | 22183 ft | 357 kts | 165° |
| 2026-04-16 04:18 | -24.81290 | 154.11631 | 22187 ft | 359 kts | 165° |
| 2026-04-16 04:19 | -24.83639 | 154.12581 | 22196 ft | 357 kts | 163° |
| 2026-04-16 04:19 | -24.85995 | 154.13527 | 22186 ft | 377 kts | 164° |
| 2026-04-16 04:19 | -24.88381 | 154.14458 | 22330 ft | 341 kts | 167° |
| 2026-04-16 04:19 | -24.90736 | 154.15444 | 22335 ft | 317 kts | 172° |
| 2026-04-16 04:20 | -24.92932 | 154.16300 | 21738 ft | 370 kts | 165° |
| 2026-04-16 04:20 | -24.95375 | 154.17268 | 22055 ft | 380 kts | 164° |
| 2026-04-16 04:20 | -24.97811 | 154.18239 | 22114 ft | 383 kts | 165° |
| 2026-04-16 04:20 | -25.00356 | 154.19189 | 22289 ft | 363 kts | 166° |
| 2026-04-16 04:21 | -25.02523 | 154.20150 | 22210 ft | 314 kts | 163° |
| 2026-04-16 04:21 | -25.04751 | 154.21071 | 22869 ft | 369 kts | 161° |
| 2026-04-16 04:21 | -25.06974 | 154.21967 | 22891 ft | 324 kts | 159° |
| 2026-04-16 04:21 | -25.09141 | 154.23534 | 22927 ft | 420 kts | 137° |
| 2026-04-16 04:22 | -25.10885 | 154.26038 | 22973 ft | 400 kts | 116° |
| 2026-04-16 04:22 | -25.11707 | 154.28883 | 22948 ft | 392 kts | 99° |
| 2026-04-16 04:22 | -25.11666 | 154.31871 | 22894 ft | 392 kts | 78° |
| 2026-04-16 04:22 | -25.10754 | 154.34716 | 22916 ft | 393 kts | 63° |
| 2026-04-16 04:23 | -25.09043 | 154.37074 | 22961 ft | 375 kts | 43° |
| 2026-04-16 04:23 | -25.06784 | 154.38663 | 22981 ft | 372 kts | 23° |
| 2026-04-16 04:23 | -25.04264 | 154.39274 | 22885 ft | 378 kts | 3° |
| 2026-04-16 04:23 | -25.01744 | 154.39024 | 22929 ft | 357 kts | 348° |
| 2026-04-16 04:24 | -24.99451 | 154.38156 | 22873 ft | 342 kts | 337° |
| 2026-04-16 04:24 | -24.97356 | 154.37238 | 22833 ft | 308 kts | 339° |
| 2026-04-16 04:24 | -24.95068 | 154.36288 | 22859 ft | 385 kts | 339° |
| 2026-04-16 04:24 | -24.92657 | 154.35300 | 22854 ft | 361 kts | 13° |
| 2026-04-16 04:25 | -24.91256 | 154.34730 | 22724 ft | 307 kts | 342° |
| 2026-04-16 04:25 | -24.86161 | 154.32674 | 23008 ft | 487 kts | 340° |
| 2026-04-16 04:25 | -24.83580 | 154.31661 | 22847 ft | 390 kts | 340° |
| 2026-04-16 04:26 | -24.81228 | 154.30706 | 22839 ft | 352 kts | 339° |
| 2026-04-16 04:26 | -24.79022 | 154.29759 | 22848 ft | 331 kts | 337° |
| 2026-04-16 04:26 | -24.77078 | 154.28685 | 22844 ft | 295 kts | 333° |
| 2026-04-16 04:26 | -24.74813 | 154.27710 | 22835 ft | 391 kts | 342° |
| 2026-04-16 04:27 | -24.72245 | 154.26884 | 22856 ft | 385 kts | 351° |
| 2026-04-16 04:27 | -24.70140 | 154.25667 | 23135 ft | 295 kts | 336° |
| 2026-04-16 04:27 | -24.68356 | 154.24581 | 22866 ft | 330 kts | 313° |
| 2026-04-16 04:27 | -24.67144 | 154.22205 | 22672 ft | 393 kts | 257° |
| 2026-04-16 04:28 | -24.68550 | 154.19909 | 22620 ft | 409 kts | 193° |
| 2026-04-16 04:28 | -24.71157 | 154.19308 | 22677 ft | 353 kts | 192° |
| 2026-04-16 04:28 | -24.73397 | 154.18832 | 22681 ft | 313 kts | 189° |
| 2026-04-16 04:28 | -24.75314 | 154.19570 | 22597 ft | 316 kts | 124° |
| 2026-04-16 04:29 | -24.76051 | 154.21902 | 22638 ft | 333 kts | 104° |
| 2026-04-16 04:29 | -24.76583 | 154.24447 | 22675 ft | 349 kts | 102° |
| 2026-04-16 04:29 | -24.77090 | 154.27141 | 22689 ft | 383 kts | 101° |
| 2026-04-16 04:29 | -24.77666 | 154.30334 | 22703 ft | 440 kts | 101° |
| 2026-04-16 04:30 | -24.78234 | 154.33529 | 22705 ft | 431 kts | 101° |
| 2026-04-16 04:30 | -24.78805 | 154.36765 | 22703 ft | 429 kts | 101° |
| 2026-04-16 04:30 | -24.79548 | 154.39930 | 22677 ft | 429 kts | 115° |
| 2026-04-16 04:30 | -24.81547 | 154.42329 | 22675 ft | 430 kts | 140° |
| 2026-04-16 04:31 | -24.83917 | 154.44351 | 22696 ft | 432 kts | 143° |
| 2026-04-16 04:31 | -24.86343 | 154.46298 | 22702 ft | 432 kts | 144° |
| 2026-04-16 04:31 | -24.88789 | 154.48221 | 22703 ft | 432 kts | 144° |
| 2026-04-16 04:31 | -24.91239 | 154.50134 | 22702 ft | 432 kts | 145° |
| 2026-04-16 04:32 | -24.93695 | 154.52046 | 22701 ft | 433 kts | 145° |
| 2026-04-16 04:32 | -24.96121 | 154.53934 | 22701 ft | 433 kts | 145° |
| 2026-04-16 04:32 | -24.98580 | 154.55847 | 22701 ft | 433 kts | 145° |
| 2026-04-16 04:32 | -25.01040 | 154.57760 | 22700 ft | 433 kts | 145° |
| 2026-04-16 04:33 | -25.02261 | 154.58709 | 22700 ft | 433 kts | 145° |
| 2026-04-16 04:37 | -25.02391 | 154.58810 | 22700 ft | 433 kts | 145° |
| 2026-04-16 04:37 | -25.04850 | 154.60721 | 22700 ft | 433 kts | 145° |
| 2026-04-16 04:37 | -25.07513 | 154.62192 | 22644 ft | 431 kts | 169° |
| 2026-04-16 04:37 | -25.10400 | 154.61575 | 22533 ft | 430 kts | 205° |
| 2026-04-16 04:38 | -25.13031 | 154.59974 | 22485 ft | 431 kts | 210° |
| 2026-04-16 04:38 | -25.15478 | 154.58098 | 22422 ft | 429 kts | 219° |
| 2026-04-16 04:38 | -25.17717 | 154.55984 | 22355 ft | 429 kts | 221° |
| 2026-04-16 04:38 | -25.19931 | 154.53777 | 22282 ft | 429 kts | 223° |
| 2026-04-16 04:39 | -25.22126 | 154.51549 | 22206 ft | 428 kts | 223° |
| 2026-04-16 04:39 | -25.24309 | 154.49315 | 22136 ft | 428 kts | 223° |
| 2026-04-16 04:39 | -25.26483 | 154.47078 | 22061 ft | 427 kts | 223° |
| 2026-04-16 04:39 | -25.28644 | 154.44832 | 21987 ft | 426 kts | 224° |
| 2026-04-16 04:40 | -25.30787 | 154.42567 | 21911 ft | 426 kts | 224° |
| 2026-04-16 04:40 | -25.32919 | 154.40296 | 21836 ft | 426 kts | 224° |
| 2026-04-16 04:40 | -25.35046 | 154.38024 | 21760 ft | 425 kts | 224° |
| 2026-04-16 04:40 | -25.37169 | 154.35753 | 21685 ft | 424 kts | 224° |
| 2026-04-16 04:41 | -25.39289 | 154.33484 | 21610 ft | 424 kts | 224° |
| 2026-04-16 04:41 | -25.41405 | 154.31220 | 21535 ft | 423 kts | 224° |
| 2026-04-16 04:41 | -25.43517 | 154.28957 | 21460 ft | 423 kts | 224° |
| 2026-04-16 04:41 | -25.45586 | 154.26741 | 21387 ft | 423 kts | 224° |
| 2026-04-16 04:42 | -25.47695 | 154.24483 | 21312 ft | 422 kts | 224° |
| 2026-04-16 04:42 | -25.49805 | 154.22222 | 21237 ft | 422 kts | 224° |
| 2026-04-16 04:42 | -25.52003 | 154.20091 | 21147 ft | 421 kts | 214° |
| 2026-04-16 04:42 | -25.54426 | 154.18280 | 21055 ft | 420 kts | 223° |
| 2026-04-16 04:43 | -25.55539 | 154.15715 | 20939 ft | 418 kts | 264° |
| 2026-04-16 04:43 | -25.55394 | 154.14123 | 20899 ft | 417 kts | 283° |
| 2026-04-16 04:43 | -25.54956 | 154.12590 | 20881 ft | 419 kts | 289° |
| 2026-04-16 04:43 | -25.54439 | 154.11079 | 20858 ft | 420 kts | 291° |
| 2026-04-16 04:44 | -25.53889 | 154.09583 | 20831 ft | 419 kts | 292° |
| 2026-04-16 04:44 | -25.53322 | 154.08100 | 20800 ft | 419 kts | 293° |
| 2026-04-16 04:44 | -25.52622 | 154.06312 | 20761 ft | 418 kts | 294° |
| 2026-04-16 04:44 | -25.51465 | 154.03405 | 20690 ft | 418 kts | 294° |
| 2026-04-16 04:45 | -25.50286 | 154.00471 | 20617 ft | 418 kts | 294° |
| 2026-04-16 04:45 | -25.49101 | 153.97534 | 20543 ft | 417 kts | 294° |
| 2026-04-16 04:45 | -25.47849 | 153.94648 | 20461 ft | 416 kts | 302° |
| 2026-04-16 04:45 | -25.45660 | 153.92879 | 20347 ft | 415 kts | 345° |
| 2026-04-16 04:46 | -25.42868 | 153.93348 | 20253 ft | 417 kts | 30° |
| 2026-04-16 04:46 | -25.41203 | 153.95872 | 20167 ft | 418 kts | 76° |
| 2026-04-16 04:46 | -25.41666 | 153.98955 | 20086 ft | 417 kts | 122° |
| 2026-04-16 04:46 | -25.43983 | 154.00741 | 20010 ft | 415 kts | 168° |
| 2026-04-16 04:47 | -25.46828 | 154.00442 | 19963 ft | 415 kts | 194° |
| 2026-04-16 04:47 | -25.49578 | 153.99608 | 19920 ft | 415 kts | 197° |
| 2026-04-16 04:47 | -25.52295 | 153.98541 | 19859 ft | 414 kts | 203° |
| 2026-04-16 04:47 | -25.54911 | 153.97224 | 19792 ft | 414 kts | 206° |
| 2026-04-16 04:48 | -25.57503 | 153.95833 | 19719 ft | 413 kts | 207° |
| 2026-04-16 04:48 | -25.60074 | 153.94421 | 19645 ft | 412 kts | 207° |
| 2026-04-16 04:48 | -25.62638 | 153.93000 | 19571 ft | 412 kts | 207° |
| 2026-04-16 04:48 | -25.65196 | 153.91576 | 19496 ft | 411 kts | 207° |
| 2026-04-16 04:49 | -25.67750 | 153.90151 | 19421 ft | 411 kts | 207° |
| 2026-04-16 04:49 | -25.70304 | 153.88725 | 19345 ft | 411 kts | 207° |
| 2026-04-16 04:49 | -25.72852 | 153.87302 | 19270 ft | 410 kts | 207° |
| 2026-04-16 04:49 | -25.75364 | 153.85898 | 19196 ft | 409 kts | 207° |
| 2026-04-16 04:50 | -25.77906 | 153.84477 | 19121 ft | 409 kts | 207° |
| 2026-04-16 04:50 | -25.80554 | 153.82996 | 19043 ft | 409 kts | 207° |
| 2026-04-16 04:50 | -25.85624 | 153.80159 | 18891 ft | 407 kts | 207° |
| 2026-04-16 04:50 | -25.90394 | 153.77490 | 18749 ft | 407 kts | 207° |
| 2026-04-16 04:51 | -25.93017 | 153.76325 | 18661 ft | 406 kts | 198° |
| 2026-04-16 04:51 | -25.95748 | 153.75519 | 18590 ft | 406 kts | 194° |
| 2026-04-16 04:51 | -25.98499 | 153.74813 | 18519 ft | 406 kts | 193° |
| 2026-04-16 04:51 | -26.01259 | 153.74144 | 18446 ft | 405 kts | 193° |
| 2026-04-16 04:52 | -26.04018 | 153.73492 | 18372 ft | 405 kts | 192° |
| 2026-04-16 04:52 | -26.06734 | 153.72857 | 18299 ft | 404 kts | 192° |
| 2026-04-16 04:52 | -26.09488 | 153.72217 | 18224 ft | 404 kts | 192° |
| 2026-04-16 04:52 | -26.12240 | 153.71578 | 18154 ft | 404 kts | 192° |
| 2026-04-16 04:53 | -26.14986 | 153.70941 | 18074 ft | 403 kts | 192° |
| 2026-04-16 04:53 | -26.17729 | 153.70306 | 17999 ft | 403 kts | 192° |
| 2026-04-16 04:53 | -26.20472 | 153.69673 | 17924 ft | 402 kts | 192° |
| 2026-04-16 04:53 | -26.23210 | 153.69044 | 17849 ft | 402 kts | 192° |
| 2026-04-16 04:54 | -26.27600 | 153.68037 | 17728 ft | 401 kts | 192° |
| 2026-04-16 04:54 | -26.33065 | 153.66782 | 17577 ft | 400 kts | 192° |
| 2026-04-16 04:54 | -26.38508 | 153.65537 | 17427 ft | 399 kts | 192° |
| 2026-04-16 04:54 | -26.46940 | 153.63688 | 17191 ft | 398 kts | 188° |
| 2026-04-16 04:55 | -26.52452 | 153.63141 | 17042 ft | 397 kts | 184° |
| 2026-04-16 04:55 | -26.57964 | 153.62813 | 16893 ft | 396 kts | 183° |
| 2026-04-16 04:55 | -26.63464 | 153.62524 | 16744 ft | 396 kts | 183° |
| 2026-04-16 04:55 | -26.68962 | 153.62240 | 16594 ft | 395 kts | 183° |
| 2026-04-16 04:56 | -26.74445 | 153.61956 | 16443 ft | 394 kts | 183° |
| 2026-04-16 04:56 | -26.89337 | 153.61173 | 16033 ft | 391 kts | 184° |
| 2026-04-16 04:56 | -26.92175 | 153.59894 | 15915 ft | 389 kts | 217° |
| 2026-04-16 04:56 | -26.94265 | 153.57961 | 15859 ft | 390 kts | 221° |
| 2026-04-16 04:57 | -26.96288 | 153.55945 | 15791 ft | 389 kts | 223° |
| 2026-04-16 04:57 | -26.98284 | 153.53906 | 15720 ft | 388 kts | 223° |
| 2026-04-16 04:57 | -27.00273 | 153.51857 | 15645 ft | 388 kts | 223° |
| 2026-04-16 04:57 | -27.02253 | 153.49801 | 15571 ft | 388 kts | 224° |
| 2026-04-16 04:58 | -27.04214 | 153.47725 | 15496 ft | 387 kts | 224° |
| 2026-04-16 04:58 | -27.06135 | 153.45673 | 15422 ft | 387 kts | 224° |
| 2026-04-16 04:58 | -27.08081 | 153.43587 | 15347 ft | 386 kts | 224° |
| 2026-04-16 04:58 | -27.10020 | 153.41505 | 15272 ft | 386 kts | 224° |
| 2026-04-16 04:59 | -27.12148 | 153.39218 | 15186 ft | 386 kts | 224° |
| 2026-04-16 04:59 | -27.16013 | 153.35063 | 15178 ft | 385 kts | 224° |
| 2026-04-16 04:59 | -27.18177 | 153.32736 | 15191 ft | 385 kts | 224° |
| 2026-04-16 04:59 | -27.20114 | 153.30653 | 15197 ft | 385 kts | 224° |
| 2026-04-16 05:00 | -27.22047 | 153.28574 | 15199 ft | 385 kts | 224° |
| 2026-04-16 05:00 | -27.25192 | 153.25188 | 15200 ft | 385 kts | 224° |
| 2026-04-16 05:00 | -27.28859 | 153.21241 | 15200 ft | 385 kts | 224° |
| 2026-04-16 05:00 | -27.30791 | 153.19160 | 15200 ft | 385 kts | 224° |
| 2026-04-16 05:01 | -27.32724 | 153.17076 | 14873 ft | 386 kts | 224° |
| 2026-04-16 05:01 | -27.34582 | 153.14990 | 13316 ft | 375 kts | 227° |
| 2026-04-16 05:01 | -27.36354 | 153.12876 | 12169 ft | 369 kts | 227° |
| 2026-04-16 05:01 | -27.37597 | 153.10417 | 12137 ft | 368 kts | 256° |
| 2026-04-16 05:02 | -27.38025 | 153.07589 | 12112 ft | 367 kts | 261° |
| 2026-04-16 05:02 | -27.38401 | 153.04747 | 12083 ft | 367 kts | 262° |
| 2026-04-16 05:02 | -27.38756 | 153.01908 | 12117 ft | 367 kts | 262° |
| 2026-04-16 05:02 | -27.39123 | 152.99067 | 12162 ft | 367 kts | 262° |
| 2026-04-16 05:03 | -27.39608 | 152.95434 | 12010 ft | 368 kts | 261° |
| 2026-04-16 05:03 | -27.40005 | 152.92546 | 11585 ft | 367 kts | 261° |
| 2026-04-16 05:03 | -27.40387 | 152.89717 | 10925 ft | 364 kts | 261° |
| 2026-04-16 05:04 | -27.41206 | 152.84206 | 10162 ft | 358 kts | 260° |
| 2026-04-16 05:04 | -27.41627 | 152.81446 | 9970 ft | 359 kts | 260° |
| 2026-04-16 05:04 | -27.42702 | 152.78978 | 9786 ft | 357 kts | 226° |
| 2026-04-16 05:04 | -27.44836 | 152.77559 | 9376 ft | 357 kts | 207° |
| 2026-04-16 05:05 | -27.47051 | 152.76342 | 8726 ft | 353 kts | 206° |
| 2026-04-16 05:05 | -27.49241 | 152.75133 | 8034 ft | 349 kts | 207° |
| 2026-04-16 05:05 | -27.51418 | 152.73974 | 7181 ft | 343 kts | 202° |
| 2026-04-16 05:05 | -27.53651 | 152.73054 | 6237 ft | 338 kts | 199° |
| 2026-04-16 05:06 | -27.55873 | 152.72194 | 5650 ft | 336 kts | 199° |
| 2026-04-16 05:06 | -27.58069 | 152.71324 | 5072 ft | 334 kts | 199° |
| 2026-04-16 05:06 | -27.60230 | 152.70491 | 4505 ft | 331 kts | 199° |
| 2026-04-16 05:06 | -27.62402 | 152.69678 | 4139 ft | 330 kts | 198° |
| 2026-04-16 05:07 | -27.64576 | 152.68887 | 3798 ft | 327 kts | 198° |
| 2026-04-16 05:07 | -27.66466 | 152.67518 | 3660 ft | 326 kts | 220° |
| 2026-04-16 05:07 | -27.68194 | 152.65862 | 3624 ft | 325 kts | 220° |
| 2026-04-16 05:07 | -27.70264 | 152.64794 | 3488 ft | 340 kts | 189° |
| 2026-04-16 05:08 | -27.72576 | 152.65113 | 3203 ft | 335 kts | 162° |
| 2026-04-16 05:08 | -27.74544 | 152.66458 | 2944 ft | 331 kts | 137° |
| 2026-04-16 05:08 | -27.75808 | 152.68591 | 2678 ft | 329 kts | 110° |
| 2026-04-16 05:08 | -27.75958 | 152.71125 | 2414 ft | 331 kts | 79° |
| 2026-04-16 05:09 | -27.74949 | 152.73664 | 2084 ft | 372 kts | 54° |
| 2026-04-16 05:09 | -27.72955 | 152.75330 | 1658 ft | 351 kts | 14° |
| 2026-04-16 05:09 | -27.70733 | 152.74765 | 1700 ft | 351 kts | 336° |
| 2026-04-16 05:09 | -27.68358 | 152.73628 | 1731 ft | 383 kts | 337° |
| 2026-04-16 05:10 | -27.66068 | 152.72567 | 1591 ft | 338 kts | 337° |
| 2026-04-16 05:10 | -27.63899 | 152.71543 | 1539 ft | 325 kts | 337° |
| 2026-04-16 05:10 | -27.62400 | 152.70014 | 1355 ft | 331 kts | 269° |
| 2026-04-16 05:10 | -27.63780 | 152.68723 | 984 ft | 274 kts | 162° |
| 2026-04-16 05:11 | -27.65342 | 152.69459 | 1010 ft | 214 kts | 158° |
| 2026-04-16 05:11 | -27.66515 | 152.70002 | 1099 ft | 156 kts | 158° |
| 2026-04-16 05:11 | -27.67291 | 152.70923 | 926 ft | 187 kts | 107° |
| 2026-04-16 05:11 | -27.66850 | 152.72158 | 594 ft | 202 kts | 29° |
| 2026-04-16 05:12 | -27.65652 | 152.72058 | 357 ft | 156 kts | 338° |
| 2026-04-16 05:12 | -27.64665 | 152.71620 | 262 ft | 200 kts | 338° |
| 2026-04-16 05:12 | -27.63129 | 152.70938 | 374 ft | 248 kts | 338° |
| 2026-04-16 05:12 | -27.61415 | 152.70186 | 624 ft | 249 kts | 338° |
| 2026-04-16 05:13 | -27.60337 | 152.69015 | 675 ft | 223 kts | 279° |
| 2026-04-16 05:13 | -27.61151 | 152.67472 | 621 ft | 231 kts | 200° |
| 2026-04-16 05:13 | -27.62508 | 152.67767 | 613 ft | 179 kts | 160° |
| 2026-04-16 05:13 | -27.63553 | 152.68207 | 624 ft | 172 kts | 160° |
| 2026-04-16 05:14 | -27.64636 | 152.68675 | 673 ft | 190 kts | 159° |
| 2026-04-16 05:14 | -27.66169 | 152.69362 | 810 ft | 233 kts | 158° |
| 2026-04-16 05:14 | -27.67450 | 152.70072 | 840 ft | 188 kts | 137° |
| 2026-04-16 05:14 | -27.67811 | 152.71310 | 774 ft | 164 kts | 80° |
| 2026-04-16 05:15 | -27.67116 | 152.72254 | 584 ft | 145 kts | 20° |
| 2026-04-16 05:15 | -27.66167 | 152.72229 | 386 ft | 157 kts | 343° |
| 2026-04-16 05:15 | -27.65179 | 152.71841 | 230 ft | 134 kts | 339° |
| 2026-04-16 05:15 | -27.64300 | 152.71458 | 127 ft | 142 kts | 338° |
| 2026-04-16 05:16 | -27.63672 | 152.71184 | 98 ft | 36 kts | 340° |
| 2026-04-16 05:16 | -27.63405 | 152.71038 | 95 ft | 37 kts | 290° |
| 2026-04-16 05:16 | -27.63359 | 152.70840 | 95 ft | 19 kts | 307° |
| 2026-04-16 05:16 | -27.63265 | 152.70790 | 96 ft | 14 kts | 338° |
| 2026-04-16 05:17 | -27.63180 | 152.70754 | 95 ft | 13 kts | 340° |
| 2026-04-16 05:17 | -27.63173 | 152.70702 | 96 ft | 5 kts | 246° |
| 2026-04-16 05:17 | -27.63209 | 152.70690 | 96 ft | 12 kts | 156° |
| 2026-04-16 05:17 | -27.63276 | 152.70694 | 98 ft | 8 kts | 246° |
| 2026-04-16 05:18 | -27.63273 | 152.70658 | 97 ft | 1 kts | 339° |
| 2026-04-16 05:18 | -27.63264 | 152.70659 | 98 ft | 1 kts | 7° |
| 2026-04-16 05:18 | -27.63252 | 152.70661 | 99 ft | 1 kts | 8° |
| 2026-04-16 05:18 | -27.63250 | 152.70661 | 99 ft | 0 kts | 8° |